Portada
METAR-TAF:

METAR-TAF

Aeroports :

Jaipur, Índia

latitud: 26-49N, longitud: 075-48E, altitud: 385 m

Observació

L'informe es va fer fa 24 minuts, a les 04:30 UTC
Vent 3 kt del Est/Sud-Est
Temperatura 27°C
Humitat 26%
Pressió 1011 hPa
Visibilitat: 3000 m
calitja

METAR: VIJP 200430Z 11003KT 3000 HZ NSC 27/06 Q1011 NOSIG

Hora: 10:24 (04:54 UTC)

Pronòstic

L'informe es va fer fa 2 hores i 54 minuts, a les 02:00 UTC
Pronòstic vàlid del 20 a les 03 UTC al 20 a les 12 UTC
Vent 3 kt del Est/Nord-Est
Visibilitat: 2000 m
Escasses núvols a una alçada de 10000 ft
calitja
Evolucionant progressivament
l' 20 a les 04 UTC al 20 a les 06 UTC
Vent 5 kt del Sud-Oest
Visibilitat: 4000 m
Escasses núvols a una alçada de 3500 ft
calitja

TAF: VIJP 200200Z 2003/2012 07003KT 2000 HZ FEW100 BECMG 2004/2006 23005KT 4000 HZ FEW035

Observacions i pronòstics meteorològics de més de 4000 aeroports (METAR i TAF).

Les estacions disponibles són els punts grocs i vermells al mapa.

Posi el ratolí al punt desitjat per veure el nom de l'estació.

Feu clic per veure les observacions i els pronòstics meteorològics.

Per canviar el mapa: feu clic els botons verds amb una creu de color negre per apropar; al botó verd amb un guió per allunyar la imatge; o en les fletxes verdes per a mapes adjacents.


METAR-TAF: